sensor_id;sensor_type;location;lat;lon;timestamp;P1;durP1;ratioP1;P2;durP2;ratioP2
5945;SDS011;2998;48.206;16.394;2023-02-19T00:01:52;1.33;;;1.20;;
5945;SDS011;2998;48.206;16.394;2023-02-19T00:04:20;0.70;;;0.70;;
5945;SDS011;2998;48.206;16.394;2023-02-19T00:06:49;0.83;;;0.83;;
5945;SDS011;2998;48.206;16.394;2023-02-19T00:09:17;0.73;;;0.70;;
5945;SDS011;2998;48.206;16.394;2023-02-19T00:11:46;0.70;;;0.70;;
5945;SDS011;2998;48.206;16.394;2023-02-19T00:14:16;0.70;;;0.63;;
5945;SDS011;2998;48.206;16.394;2023-02-19T00:16:46;0.70;;;0.63;;
5945;SDS011;2998;48.206;16.394;2023-02-19T00:19:14;0.50;;;0.50;;
5945;SDS011;2998;48.206;16.394;2023-02-19T00:21:43;0.60;;;0.50;;
5945;SDS011;2998;48.206;16.394;2023-02-19T00:24:11;0.50;;;0.50;;
5945;SDS011;2998;48.206;16.394;2023-02-19T00:26:40;0.50;;;0.50;;
5945;SDS011;2998;48.206;16.394;2023-02-19T00:29:10;0.70;;;0.70;;
5945;SDS011;2998;48.206;16.394;2023-02-19T00:31:41;0.50;;;0.50;;
5945;SDS011;2998;48.206;16.394;2023-02-19T00:34:10;0.57;;;0.50;;
5945;SDS011;2998;48.206;16.394;2023-02-19T00:36:39;0.70;;;0.70;;
5945;SDS011;2998;48.206;16.394;2023-02-19T00:39:10;0.70;;;0.70;;
5945;SDS011;2998;48.206;16.394;2023-02-19T00:41:39;0.53;;;0.53;;
5945;SDS011;2998;48.206;16.394;2023-02-19T00:44:07;0.80;;;0.60;;
5945;SDS011;2998;48.206;16.394;2023-02-19T00:46:37;0.50;;;0.40;;
5945;SDS011;2998;48.206;16.394;2023-02-19T00:49:10;0.50;;;0.50;;
5945;SDS011;2998;48.206;16.394;2023-02-19T00:51:41;0.60;;;0.60;;
5945;SDS011;2998;48.206;16.394;2023-02-19T00:54:09;0.60;;;0.50;;
5945;SDS011;2998;48.206;16.394;2023-02-19T00:56:37;0.70;;;0.70;;
5945;SDS011;2998;48.206;16.394;2023-02-19T00:59:05;0.70;;;0.70;;
5945;SDS011;2998;48.206;16.394;2023-02-19T01:01:33;1.37;;;1.10;;
5945;SDS011;2998;48.206;16.394;2023-02-19T01:04:01;1.33;;;1.03;;
5945;SDS011;2998;48.206;16.394;2023-02-19T01:06:33;1.47;;;1.40;;
5945;SDS011;2998;48.206;16.394;2023-02-19T01:09:01;1.80;;;1.70;;
5945;SDS011;2998;48.206;16.394;2023-02-19T01:11:30;1.60;;;1.50;;
5945;SDS011;2998;48.206;16.394;2023-02-19T01:13:58;1.03;;;1.03;;
5945;SDS011;2998;48.206;16.394;2023-02-19T01:16:27;1.47;;;0.87;;
5945;SDS011;2998;48.206;16.394;2023-02-19T01:18:56;0.50;;;0.50;;
5945;SDS011;2998;48.206;16.394;2023-02-19T01:21:25;0.80;;;0.70;;
5945;SDS011;2998;48.206;16.394;2023-02-19T01:23:56;0.60;;;0.60;;
5945;SDS011;2998;48.206;16.394;2023-02-19T01:26:25;0.70;;;0.50;;
5945;SDS011;2998;48.206;16.394;2023-02-19T01:28:55;0.50;;;0.50;;
5945;SDS011;2998;48.206;16.394;2023-02-19T01:31:23;0.50;;;0.50;;
5945;SDS011;2998;48.206;16.394;2023-02-19T01:33:52;0.50;;;0.50;;
5945;SDS011;2998;48.206;16.394;2023-02-19T01:36:20;1.40;;;0.60;;
5945;SDS011;2998;48.206;16.394;2023-02-19T01:38:48;0.40;;;0.40;;
5945;SDS011;2998;48.206;16.394;2023-02-19T01:41:18;0.60;;;0.60;;
5945;SDS011;2998;48.206;16.394;2023-02-19T01:43:54;0.70;;;0.70;;
5945;SDS011;2998;48.206;16.394;2023-02-19T01:46:24;0.60;;;0.60;;
5945;SDS011;2998;48.206;16.394;2023-02-19T01:48:53;1.20;;;0.60;;
5945;SDS011;2998;48.206;16.394;2023-02-19T01:51:23;0.50;;;0.50;;
5945;SDS011;2998;48.206;16.394;2023-02-19T01:53:52;0.50;;;0.40;;
5945;SDS011;2998;48.206;16.394;2023-02-19T01:56:23;1.03;;;0.60;;
5945;SDS011;2998;48.206;16.394;2023-02-19T01:58:52;0.50;;;0.40;;
5945;SDS011;2998;48.206;16.394;2023-02-19T02:01:20;0.63;;;0.63;;
5945;SDS011;2998;48.206;16.394;2023-02-19T02:03:48;0.60;;;0.50;;
5945;SDS011;2998;48.206;16.394;2023-02-19T02:06:18;0.50;;;0.50;;
5945;SDS011;2998;48.206;16.394;2023-02-19T02:08:49;0.63;;;0.63;;
5945;SDS011;2998;48.206;16.394;2023-02-19T02:11:37;3.40;;;0.50;;
5945;SDS011;2998;48.206;16.394;2023-02-19T02:14:07;0.70;;;0.70;;
5945;SDS011;2998;48.206;16.394;2023-02-19T02:16:37;0.53;;;0.53;;
5945;SDS011;2998;48.206;16.394;2023-02-19T02:19:18;0.60;;;0.50;;
5945;SDS011;2998;48.206;16.394;2023-02-19T02:22:06;0.73;;;0.73;;
5945;SDS011;2998;48.206;16.394;2023-02-19T02:28:04;0.67;;;0.40;;
5945;SDS011;2998;48.206;16.394;2023-02-19T02:30:42;0.50;;;0.50;;
5945;SDS011;2998;48.206;16.394;2023-02-19T02:33:16;0.80;;;0.60;;
5945;SDS011;2998;48.206;16.394;2023-02-19T02:35:48;0.50;;;0.47;;
5945;SDS011;2998;48.206;16.394;2023-02-19T02:38:19;1.43;;;0.50;;
5945;SDS011;2998;48.206;16.394;2023-02-19T02:40:50;0.50;;;0.50;;
5945;SDS011;2998;48.206;16.394;2023-02-19T02:43:18;0.60;;;0.40;;
5945;SDS011;2998;48.206;16.394;2023-02-19T02:45:48;0.60;;;0.40;;
5945;SDS011;2998;48.206;16.394;2023-02-19T02:48:18;0.50;;;0.43;;
5945;SDS011;2998;48.206;16.394;2023-02-19T02:50:51;1.07;;;0.50;;
5945;SDS011;2998;48.206;16.394;2023-02-19T02:53:22;0.70;;;0.40;;
5945;SDS011;2998;48.206;16.394;2023-02-19T02:56:11;0.40;;;0.40;;
5945;SDS011;2998;48.206;16.394;2023-02-19T02:58:41;0.47;;;0.40;;
5945;SDS011;2998;48.206;16.394;2023-02-19T03:01:12;0.60;;;0.40;;
5945;SDS011;2998;48.206;16.394;2023-02-19T03:04:02;0.40;;;0.40;;
5945;SDS011;2998;48.206;16.394;2023-02-19T03:06:32;0.50;;;0.40;;
5945;SDS011;2998;48.206;16.394;2023-02-19T03:09:05;2.93;;;0.40;;
5945;SDS011;2998;48.206;16.394;2023-02-19T03:11:37;1.80;;;0.47;;
5945;SDS011;2998;48.206;16.394;2023-02-19T03:14:26;0.60;;;0.40;;
5945;SDS011;2998;48.206;16.394;2023-02-19T03:17:17;0.50;;;0.40;;
5945;SDS011;2998;48.206;16.394;2023-02-19T03:20:08;0.40;;;0.30;;
5945;SDS011;2998;48.206;16.394;2023-02-19T03:22:38;0.40;;;0.40;;
5945;SDS011;2998;48.206;16.394;2023-02-19T03:25:08;0.50;;;0.50;;
5945;SDS011;2998;48.206;16.394;2023-02-19T03:27:56;0.60;;;0.50;;
5945;SDS011;2998;48.206;16.394;2023-02-19T03:30:27;0.50;;;0.40;;
5945;SDS011;2998;48.206;16.394;2023-02-19T03:32:58;4.23;;;0.40;;
5945;SDS011;2998;48.206;16.394;2023-02-19T03:35:29;0.50;;;0.40;;
5945;SDS011;2998;48.206;16.394;2023-02-19T03:38:00;2.57;;;0.40;;
5945;SDS011;2998;48.206;16.394;2023-02-19T03:40:33;0.40;;;0.40;;
5945;SDS011;2998;48.206;16.394;2023-02-19T03:43:06;0.40;;;0.30;;
5945;SDS011;2998;48.206;16.394;2023-02-19T03:45:43;0.50;;;0.43;;
5945;SDS011;2998;48.206;16.394;2023-02-19T03:48:20;0.60;;;0.50;;
5945;SDS011;2998;48.206;16.394;2023-02-19T03:50:54;0.40;;;0.40;;
5945;SDS011;2998;48.206;16.394;2023-02-19T03:53:28;0.40;;;0.40;;
5945;SDS011;2998;48.206;16.394;2023-02-19T03:56:03;1.17;;;0.50;;
5945;SDS011;2998;48.206;16.394;2023-02-19T03:58:34;0.50;;;0.40;;
5945;SDS011;2998;48.206;16.394;2023-02-19T04:01:06;0.50;;;0.50;;
5945;SDS011;2998;48.206;16.394;2023-02-19T04:03:39;0.50;;;0.50;;
5945;SDS011;2998;48.206;16.394;2023-02-19T04:06:11;2.43;;;2.33;;
5945;SDS011;2998;48.206;16.394;2023-02-19T04:08:41;0.90;;;0.90;;
5945;SDS011;2998;48.206;16.394;2023-02-19T04:11:11;1.43;;;1.37;;
5945;SDS011;2998;48.206;16.394;2023-02-19T04:13:42;1.67;;;1.57;;
5945;SDS011;2998;48.206;16.394;2023-02-19T04:16:15;2.00;;;1.90;;
5945;SDS011;2998;48.206;16.394;2023-02-19T04:18:47;2.57;;;2.47;;
5945;SDS011;2998;48.206;16.394;2023-02-19T04:21:18;4.10;;;3.80;;
5945;SDS011;2998;48.206;16.394;2023-02-19T04:23:47;4.10;;;3.90;;
5945;SDS011;2998;48.206;16.394;2023-02-19T04:26:15;4.70;;;4.40;;
5945;SDS011;2998;48.206;16.394;2023-02-19T04:28:43;6.33;;;5.90;;
5945;SDS011;2998;48.206;16.394;2023-02-19T04:31:11;8.13;;;7.50;;
5945;SDS011;2998;48.206;16.394;2023-02-19T04:33:40;8.20;;;7.57;;
5945;SDS011;2998;48.206;16.394;2023-02-19T04:36:09;9.43;;;8.63;;
5945;SDS011;2998;48.206;16.394;2023-02-19T04:38:37;8.80;;;8.10;;
5945;SDS011;2998;48.206;16.394;2023-02-19T04:41:05;8.13;;;7.53;;
5945;SDS011;2998;48.206;16.394;2023-02-19T04:43:35;8.20;;;7.60;;
5945;SDS011;2998;48.206;16.394;2023-02-19T04:46:03;6.33;;;5.93;;
5945;SDS011;2998;48.206;16.394;2023-02-19T04:48:31;6.73;;;6.17;;
5945;SDS011;2998;48.206;16.394;2023-02-19T04:51:03;6.63;;;6.23;;
5945;SDS011;2998;48.206;16.394;2023-02-19T04:53:33;7.40;;;6.90;;
5945;SDS011;2998;48.206;16.394;2023-02-19T04:56:05;7.10;;;6.60;;
5945;SDS011;2998;48.206;16.394;2023-02-19T04:58:34;7.10;;;6.60;;
5945;SDS011;2998;48.206;16.394;2023-02-19T05:01:02;7.40;;;6.80;;
5945;SDS011;2998;48.206;16.394;2023-02-19T05:03:31;7.50;;;7.00;;
5945;SDS011;2998;48.206;16.394;2023-02-19T05:06:01;7.17;;;6.57;;
5945;SDS011;2998;48.206;16.394;2023-02-19T05:08:30;7.70;;;7.13;;
5945;SDS011;2998;48.206;16.394;2023-02-19T05:10:59;7.13;;;6.50;;
5945;SDS011;2998;48.206;16.394;2023-02-19T05:13:28;7.77;;;7.13;;
5945;SDS011;2998;48.206;16.394;2023-02-19T05:15:56;6.53;;;6.13;;
5945;SDS011;2998;48.206;16.394;2023-02-19T05:18:26;7.20;;;6.70;;
5945;SDS011;2998;48.206;16.394;2023-02-19T05:20:54;8.47;;;7.87;;
5945;SDS011;2998;48.206;16.394;2023-02-19T05:23:24;8.10;;;7.50;;
5945;SDS011;2998;48.206;16.394;2023-02-19T05:25:52;8.00;;;7.40;;
5945;SDS011;2998;48.206;16.394;2023-02-19T05:28:21;10.10;;;9.20;;
5945;SDS011;2998;48.206;16.394;2023-02-19T05:30:54;12.90;;;11.60;;
5945;SDS011;2998;48.206;16.394;2023-02-19T05:33:23;9.27;;;8.57;;
5945;SDS011;2998;48.206;16.394;2023-02-19T05:35:53;10.00;;;8.80;;
5945;SDS011;2998;48.206;16.394;2023-02-19T05:38:21;9.43;;;8.53;;
5945;SDS011;2998;48.206;16.394;2023-02-19T05:40:50;10.97;;;9.80;;
5945;SDS011;2998;48.206;16.394;2023-02-19T05:43:18;11.13;;;10.23;;
5945;SDS011;2998;48.206;16.394;2023-02-19T05:45:47;11.80;;;10.70;;
5945;SDS011;2998;48.206;16.394;2023-02-19T05:48:15;12.93;;;11.73;;
5945;SDS011;2998;48.206;16.394;2023-02-19T05:50:43;11.40;;;10.50;;
5945;SDS011;2998;48.206;16.394;2023-02-19T05:53:11;11.43;;;10.53;;
5945;SDS011;2998;48.206;16.394;2023-02-19T05:55:39;10.23;;;9.40;;
5945;SDS011;2998;48.206;16.394;2023-02-19T05:58:07;10.57;;;9.60;;
5945;SDS011;2998;48.206;16.394;2023-02-19T06:00:35;9.50;;;8.80;;
5945;SDS011;2998;48.206;16.394;2023-02-19T06:03:04;9.53;;;8.70;;
5945;SDS011;2998;48.206;16.394;2023-02-19T06:05:32;9.67;;;8.80;;
5945;SDS011;2998;48.206;16.394;2023-02-19T06:08:00;12.17;;;10.50;;
5945;SDS011;2998;48.206;16.394;2023-02-19T06:10:28;9.03;;;8.37;;
5945;SDS011;2998;48.206;16.394;2023-02-19T06:12:56;8.50;;;7.80;;
5945;SDS011;2998;48.206;16.394;2023-02-19T06:15:24;6.80;;;6.40;;
5945;SDS011;2998;48.206;16.394;2023-02-19T06:17:52;7.83;;;7.13;;
5945;SDS011;2998;48.206;16.394;2023-02-19T06:20:21;6.30;;;5.90;;
5945;SDS011;2998;48.206;16.394;2023-02-19T06:22:51;7.37;;;6.80;;
5945;SDS011;2998;48.206;16.394;2023-02-19T06:25:19;5.40;;;5.10;;
5945;SDS011;2998;48.206;16.394;2023-02-19T06:27:47;5.10;;;4.90;;
5945;SDS011;2998;48.206;16.394;2023-02-19T06:30:15;5.40;;;5.10;;
5945;SDS011;2998;48.206;16.394;2023-02-19T06:32:43;5.00;;;4.80;;
5945;SDS011;2998;48.206;16.394;2023-02-19T06:35:11;5.73;;;5.47;;
5945;SDS011;2998;48.206;16.394;2023-02-19T06:37:40;5.87;;;5.57;;
5945;SDS011;2998;48.206;16.394;2023-02-19T06:40:08;5.80;;;5.40;;
5945;SDS011;2998;48.206;16.394;2023-02-19T06:42:37;6.00;;;5.70;;
5945;SDS011;2998;48.206;16.394;2023-02-19T06:45:05;5.90;;;5.60;;
5945;SDS011;2998;48.206;16.394;2023-02-19T06:47:33;5.33;;;5.13;;
5945;SDS011;2998;48.206;16.394;2023-02-19T06:50:01;5.10;;;4.90;;
5945;SDS011;2998;48.206;16.394;2023-02-19T06:52:29;4.00;;;3.90;;
5945;SDS011;2998;48.206;16.394;2023-02-19T06:54:58;3.47;;;3.37;;
5945;SDS011;2998;48.206;16.394;2023-02-19T06:57:26;3.60;;;3.50;;
5945;SDS011;2998;48.206;16.394;2023-02-19T06:59:55;2.80;;;2.70;;
5945;SDS011;2998;48.206;16.394;2023-02-19T07:02:23;2.90;;;2.80;;
5945;SDS011;2998;48.206;16.394;2023-02-19T07:04:51;2.53;;;2.20;;
5945;SDS011;2998;48.206;16.394;2023-02-19T07:07:19;2.20;;;2.10;;
5945;SDS011;2998;48.206;16.394;2023-02-19T07:09:47;2.80;;;2.70;;
5945;SDS011;2998;48.206;16.394;2023-02-19T07:12:16;2.73;;;2.63;;
5945;SDS011;2998;48.206;16.394;2023-02-19T07:14:44;2.53;;;2.43;;
5945;SDS011;2998;48.206;16.394;2023-02-19T07:17:13;2.40;;;2.30;;
5945;SDS011;2998;48.206;16.394;2023-02-19T07:19:41;2.30;;;2.20;;
5945;SDS011;2998;48.206;16.394;2023-02-19T07:22:09;2.10;;;2.00;;
5945;SDS011;2998;48.206;16.394;2023-02-19T07:24:37;1.90;;;1.80;;
5945;SDS011;2998;48.206;16.394;2023-02-19T07:27:05;1.87;;;1.77;;
5945;SDS011;2998;48.206;16.394;2023-02-19T07:29:34;1.70;;;1.60;;
5945;SDS011;2998;48.206;16.394;2023-02-19T07:32:02;1.70;;;1.63;;
5945;SDS011;2998;48.206;16.394;2023-02-19T07:34:31;1.57;;;1.57;;
5945;SDS011;2998;48.206;16.394;2023-02-19T07:36:58;2.13;;;1.50;;
5945;SDS011;2998;48.206;16.394;2023-02-19T07:39:26;1.90;;;1.80;;
5945;SDS011;2998;48.206;16.394;2023-02-19T07:41:54;2.30;;;1.53;;
5945;SDS011;2998;48.206;16.394;2023-02-19T07:44:22;1.50;;;1.40;;
5945;SDS011;2998;48.206;16.394;2023-02-19T07:46:52;1.67;;;1.57;;
5945;SDS011;2998;48.206;16.394;2023-02-19T07:49:20;1.90;;;1.80;;
5945;SDS011;2998;48.206;16.394;2023-02-19T07:51:48;1.77;;;1.67;;
5945;SDS011;2998;48.206;16.394;2023-02-19T07:54:15;1.90;;;1.80;;
5945;SDS011;2998;48.206;16.394;2023-02-19T07:56:43;1.57;;;1.47;;
5945;SDS011;2998;48.206;16.394;2023-02-19T07:59:11;2.73;;;1.77;;
5945;SDS011;2998;48.206;16.394;2023-02-19T08:01:41;2.47;;;1.90;;
5945;SDS011;2998;48.206;16.394;2023-02-19T08:04:28;1.70;;;1.60;;
5945;SDS011;2998;48.206;16.394;2023-02-19T08:06:56;1.20;;;1.20;;
5945;SDS011;2998;48.206;16.394;2023-02-19T08:09:24;4.60;;;1.87;;
5945;SDS011;2998;48.206;16.394;2023-02-19T08:11:52;2.60;;;1.50;;
5945;SDS011;2998;48.206;16.394;2023-02-19T08:14:37;1.37;;;1.33;;
5945;SDS011;2998;48.206;16.394;2023-02-19T08:17:05;5.53;;;3.83;;
5945;SDS011;2998;48.206;16.394;2023-02-19T08:19:34;1.87;;;1.77;;
5945;SDS011;2998;48.206;16.394;2023-02-19T08:22:02;2.00;;;1.37;;
5945;SDS011;2998;48.206;16.394;2023-02-19T08:24:31;2.13;;;1.30;;
5945;SDS011;2998;48.206;16.394;2023-02-19T08:26:59;1.50;;;1.40;;
5945;SDS011;2998;48.206;16.394;2023-02-19T08:29:27;2.20;;;1.77;;
5945;SDS011;2998;48.206;16.394;2023-02-19T08:31:55;5.53;;;1.80;;
5945;SDS011;2998;48.206;16.394;2023-02-19T08:34:23;1.50;;;1.40;;
5945;SDS011;2998;48.206;16.394;2023-02-19T08:36:52;1.40;;;1.30;;
5945;SDS011;2998;48.206;16.394;2023-02-19T08:39:20;1.10;;;1.10;;
5945;SDS011;2998;48.206;16.394;2023-02-19T08:41:48;2.33;;;1.17;;
5945;SDS011;2998;48.206;16.394;2023-02-19T08:44:16;1.07;;;1.07;;
5945;SDS011;2998;48.206;16.394;2023-02-19T08:46:44;1.27;;;1.17;;
5945;SDS011;2998;48.206;16.394;2023-02-19T08:49:12;1.33;;;1.33;;
5945;SDS011;2998;48.206;16.394;2023-02-19T08:51:41;1.90;;;1.80;;
5945;SDS011;2998;48.206;16.394;2023-02-19T08:54:11;1.43;;;0.80;;
5945;SDS011;2998;48.206;16.394;2023-02-19T08:56:39;0.80;;;0.80;;
5945;SDS011;2998;48.206;16.394;2023-02-19T08:59:07;0.60;;;0.50;;
5945;SDS011;2998;48.206;16.394;2023-02-19T09:01:35;0.50;;;0.50;;
5945;SDS011;2998;48.206;16.394;2023-02-19T09:04:03;2.10;;;0.50;;
5945;SDS011;2998;48.206;16.394;2023-02-19T09:06:31;0.50;;;0.50;;
5945;SDS011;2998;48.206;16.394;2023-02-19T09:08:59;0.50;;;0.40;;
5945;SDS011;2998;48.206;16.394;2023-02-19T09:11:28;2.03;;;0.67;;
5945;SDS011;2998;48.206;16.394;2023-02-19T09:13:56;1.27;;;0.70;;
5945;SDS011;2998;48.206;16.394;2023-02-19T09:16:24;0.40;;;0.40;;
5945;SDS011;2998;48.206;16.394;2023-02-19T09:18:52;3.00;;;0.87;;
5945;SDS011;2998;48.206;16.394;2023-02-19T09:21:23;0.60;;;0.50;;
5945;SDS011;2998;48.206;16.394;2023-02-19T09:23:51;2.07;;;0.50;;
5945;SDS011;2998;48.206;16.394;2023-02-19T09:26:19;0.77;;;0.77;;
5945;SDS011;2998;48.206;16.394;2023-02-19T09:28:48;1.17;;;0.80;;
5945;SDS011;2998;48.206;16.394;2023-02-19T09:31:16;1.07;;;0.60;;
5945;SDS011;2998;48.206;16.394;2023-02-19T09:33:45;0.60;;;0.60;;
5945;SDS011;2998;48.206;16.394;2023-02-19T09:36:14;9.93;;;0.60;;
5945;SDS011;2998;48.206;16.394;2023-02-19T09:38:44;0.80;;;0.60;;
5945;SDS011;2998;48.206;16.394;2023-02-19T09:41:14;4.60;;;0.63;;
5945;SDS011;2998;48.206;16.394;2023-02-19T09:43:44;0.63;;;0.60;;
5945;SDS011;2998;48.206;16.394;2023-02-19T09:46:20;0.70;;;0.60;;
5945;SDS011;2998;48.206;16.394;2023-02-19T09:48:50;0.60;;;0.60;;
5945;SDS011;2998;48.206;16.394;2023-02-19T09:51:20;0.70;;;0.40;;
5945;SDS011;2998;48.206;16.394;2023-02-19T09:53:48;0.50;;;0.47;;
5945;SDS011;2998;48.206;16.394;2023-02-19T09:56:18;0.50;;;0.50;;
5945;SDS011;2998;48.206;16.394;2023-02-19T09:58:46;0.50;;;0.43;;
5945;SDS011;2998;48.206;16.394;2023-02-19T10:01:15;0.60;;;0.50;;
5945;SDS011;2998;48.206;16.394;2023-02-19T10:03:46;0.77;;;0.77;;
5945;SDS011;2998;48.206;16.394;2023-02-19T10:06:15;0.90;;;0.90;;
5945;SDS011;2998;48.206;16.394;2023-02-19T10:08:46;0.80;;;0.47;;
5945;SDS011;2998;48.206;16.394;2023-02-19T10:11:16;0.50;;;0.50;;
5945;SDS011;2998;48.206;16.394;2023-02-19T10:13:45;2.80;;;0.80;;
5945;SDS011;2998;48.206;16.394;2023-02-19T10:16:16;0.63;;;0.63;;
5945;SDS011;2998;48.206;16.394;2023-02-19T10:18:48;0.67;;;0.67;;
5945;SDS011;2998;48.206;16.394;2023-02-19T10:21:17;0.70;;;0.70;;
5945;SDS011;2998;48.206;16.394;2023-02-19T10:23:46;1.20;;;0.73;;
5945;SDS011;2998;48.206;16.394;2023-02-19T10:26:17;1.27;;;0.67;;
5945;SDS011;2998;48.206;16.394;2023-02-19T10:28:45;0.50;;;0.50;;
5945;SDS011;2998;48.206;16.394;2023-02-19T10:31:15;0.53;;;0.53;;
5945;SDS011;2998;48.206;16.394;2023-02-19T10:33:48;1.43;;;0.63;;
5945;SDS011;2998;48.206;16.394;2023-02-19T10:36:23;1.50;;;0.63;;
5945;SDS011;2998;48.206;16.394;2023-02-19T10:38:56;0.70;;;0.70;;
5945;SDS011;2998;48.206;16.394;2023-02-19T10:41:25;0.80;;;0.70;;
5945;SDS011;2998;48.206;16.394;2023-02-19T10:43:54;0.87;;;0.87;;
5945;SDS011;2998;48.206;16.394;2023-02-19T10:46:24;1.17;;;0.70;;
5945;SDS011;2998;48.206;16.394;2023-02-19T10:48:56;0.60;;;0.60;;
5945;SDS011;2998;48.206;16.394;2023-02-19T10:51:29;0.60;;;0.60;;
5945;SDS011;2998;48.206;16.394;2023-02-19T10:54:03;1.33;;;0.97;;
5945;SDS011;2998;48.206;16.394;2023-02-19T10:56:32;0.90;;;0.60;;
5945;SDS011;2998;48.206;16.394;2023-02-19T10:59:14;0.80;;;0.70;;
5945;SDS011;2998;48.206;16.394;2023-02-19T11:01:53;0.50;;;0.50;;
5945;SDS011;2998;48.206;16.394;2023-02-19T11:04:24;0.60;;;0.60;;
5945;SDS011;2998;48.206;16.394;2023-02-19T11:06:53;0.50;;;0.50;;
5945;SDS011;2998;48.206;16.394;2023-02-19T11:09:24;0.60;;;0.50;;
5945;SDS011;2998;48.206;16.394;2023-02-19T11:11:53;0.53;;;0.47;;
5945;SDS011;2998;48.206;16.394;2023-02-19T11:14:23;0.60;;;0.50;;
5945;SDS011;2998;48.206;16.394;2023-02-19T11:16:52;1.00;;;0.53;;
5945;SDS011;2998;48.206;16.394;2023-02-19T11:19:32;0.80;;;0.70;;
5945;SDS011;2998;48.206;16.394;2023-02-19T11:22:17;10.20;;;0.50;;
5945;SDS011;2998;48.206;16.394;2023-02-19T11:24:47;0.50;;;0.40;;
5945;SDS011;2998;48.206;16.394;2023-02-19T11:27:16;0.60;;;0.60;;
5945;SDS011;2998;48.206;16.394;2023-02-19T11:29:45;0.70;;;0.63;;
5945;SDS011;2998;48.206;16.394;2023-02-19T11:32:21;0.70;;;0.70;;
5945;SDS011;2998;48.206;16.394;2023-02-19T11:35:03;0.60;;;0.60;;
5945;SDS011;2998;48.206;16.394;2023-02-19T11:37:51;1.00;;;0.90;;
5945;SDS011;2998;48.206;16.394;2023-02-19T11:40:20;1.00;;;0.67;;
5945;SDS011;2998;48.206;16.394;2023-02-19T11:42:52;0.80;;;0.80;;
5945;SDS011;2998;48.206;16.394;2023-02-19T11:45:26;0.80;;;0.80;;
5945;SDS011;2998;48.206;16.394;2023-02-19T11:50:54;1.03;;;1.03;;
5945;SDS011;2998;48.206;16.394;2023-02-19T11:53:27;0.77;;;0.77;;
5945;SDS011;2998;48.206;16.394;2023-02-19T11:56:01;0.63;;;0.60;;
5945;SDS011;2998;48.206;16.394;2023-02-19T11:58:42;0.90;;;0.70;;
5945;SDS011;2998;48.206;16.394;2023-02-19T12:01:21;1.47;;;0.50;;
5945;SDS011;2998;48.206;16.394;2023-02-19T12:03:57;0.50;;;0.50;;
5945;SDS011;2998;48.206;16.394;2023-02-19T12:06:36;0.50;;;0.40;;
5945;SDS011;2998;48.206;16.394;2023-02-19T12:09:13;0.70;;;0.70;;
5945;SDS011;2998;48.206;16.394;2023-02-19T12:12:02;0.50;;;0.40;;
5945;SDS011;2998;48.206;16.394;2023-02-19T12:14:53;0.70;;;0.70;;
5945;SDS011;2998;48.206;16.394;2023-02-19T12:17:33;1.00;;;0.80;;
5945;SDS011;2998;48.206;16.394;2023-02-19T12:20:13;1.00;;;0.80;;
5945;SDS011;2998;48.206;16.394;2023-02-19T12:22:48;0.60;;;0.50;;
5945;SDS011;2998;48.206;16.394;2023-02-19T12:25:28;0.80;;;0.70;;
5945;SDS011;2998;48.206;16.394;2023-02-19T12:30:59;0.50;;;0.40;;
5945;SDS011;2998;48.206;16.394;2023-02-19T12:36:26;0.50;;;0.40;;
5945;SDS011;2998;48.206;16.394;2023-02-19T12:39:02;0.60;;;0.50;;
5945;SDS011;2998;48.206;16.394;2023-02-19T12:41:36;1.07;;;0.70;;
5945;SDS011;2998;48.206;16.394;2023-02-19T12:44:08;0.60;;;0.40;;
5945;SDS011;2998;48.206;16.394;2023-02-19T12:46:40;0.70;;;0.67;;
5945;SDS011;2998;48.206;16.394;2023-02-19T12:49:10;0.40;;;0.40;;
5945;SDS011;2998;48.206;16.394;2023-02-19T12:51:40;1.97;;;1.50;;
5945;SDS011;2998;48.206;16.394;2023-02-19T12:54:13;2.80;;;1.20;;
5945;SDS011;2998;48.206;16.394;2023-02-19T12:56:46;0.90;;;0.50;;
5945;SDS011;2998;48.206;16.394;2023-02-19T12:59:19;0.50;;;0.40;;
5945;SDS011;2998;48.206;16.394;2023-02-19T13:01:51;0.60;;;0.43;;
5945;SDS011;2998;48.206;16.394;2023-02-19T13:04:25;0.60;;;0.40;;
5945;SDS011;2998;48.206;16.394;2023-02-19T13:06:58;0.80;;;0.80;;
5945;SDS011;2998;48.206;16.394;2023-02-19T13:09:32;3.07;;;0.90;;
5945;SDS011;2998;48.206;16.394;2023-02-19T13:12:02;0.60;;;0.53;;
5945;SDS011;2998;48.206;16.394;2023-02-19T13:14:33;1.53;;;0.60;;
5945;SDS011;2998;48.206;16.394;2023-02-19T13:17:05;0.50;;;0.40;;
5945;SDS011;2998;48.206;16.394;2023-02-19T13:19:39;1.37;;;0.53;;
5945;SDS011;2998;48.206;16.394;2023-02-19T13:22:11;1.00;;;0.50;;
5945;SDS011;2998;48.206;16.394;2023-02-19T13:25:02;0.50;;;0.50;;
5945;SDS011;2998;48.206;16.394;2023-02-19T13:27:40;1.03;;;0.50;;
5945;SDS011;2998;48.206;16.394;2023-02-19T13:30:31;0.60;;;0.50;;
5945;SDS011;2998;48.206;16.394;2023-02-19T13:33:17;0.60;;;0.57;;
5945;SDS011;2998;48.206;16.394;2023-02-19T13:35:54;0.50;;;0.50;;
5945;SDS011;2998;48.206;16.394;2023-02-19T13:38:31;0.60;;;0.50;;
5945;SDS011;2998;48.206;16.394;2023-02-19T13:41:04;0.77;;;0.53;;
5945;SDS011;2998;48.206;16.394;2023-02-19T13:43:33;3.93;;;0.67;;
5945;SDS011;2998;48.206;16.394;2023-02-19T13:46:05;0.70;;;0.67;;
5945;SDS011;2998;48.206;16.394;2023-02-19T13:48:35;0.50;;;0.50;;
5945;SDS011;2998;48.206;16.394;2023-02-19T13:59:55;0.70;;;0.70;;
5945;SDS011;2998;48.206;16.394;2023-02-19T14:02:26;2.00;;;0.60;;
5945;SDS011;2998;48.206;16.394;2023-02-19T14:04:57;1.07;;;0.97;;
5945;SDS011;2998;48.206;16.394;2023-02-19T14:16:30;0.70;;;0.60;;
5945;SDS011;2998;48.206;16.394;2023-02-19T14:19:00;0.60;;;0.50;;
5945;SDS011;2998;48.206;16.394;2023-02-19T14:21:33;2.03;;;1.03;;
5945;SDS011;2998;48.206;16.394;2023-02-19T14:24:02;1.17;;;1.00;;
5945;SDS011;2998;48.206;16.394;2023-02-19T14:26:32;1.00;;;0.83;;
5945;SDS011;2998;48.206;16.394;2023-02-19T14:29:02;0.83;;;0.83;;
5945;SDS011;2998;48.206;16.394;2023-02-19T14:31:33;0.67;;;0.60;;
5945;SDS011;2998;48.206;16.394;2023-02-19T14:34:03;8.13;;;1.13;;
5945;SDS011;2998;48.206;16.394;2023-02-19T14:36:34;1.30;;;0.70;;
5945;SDS011;2998;48.206;16.394;2023-02-19T14:39:10;0.77;;;0.77;;
5945;SDS011;2998;48.206;16.394;2023-02-19T14:41:41;1.63;;;0.73;;
5945;SDS011;2998;48.206;16.394;2023-02-19T14:44:14;0.73;;;0.60;;
5945;SDS011;2998;48.206;16.394;2023-02-19T14:46:47;0.70;;;0.70;;
5945;SDS011;2998;48.206;16.394;2023-02-19T14:49:19;0.80;;;0.80;;
5945;SDS011;2998;48.206;16.394;2023-02-19T14:51:50;0.67;;;0.67;;
5945;SDS011;2998;48.206;16.394;2023-02-19T14:54:21;0.80;;;0.80;;
5945;SDS011;2998;48.206;16.394;2023-02-19T14:56:58;1.60;;;1.13;;
5945;SDS011;2998;48.206;16.394;2023-02-19T14:59:29;0.80;;;0.80;;
5945;SDS011;2998;48.206;16.394;2023-02-19T15:01:58;0.83;;;0.83;;
5945;SDS011;2998;48.206;16.394;2023-02-19T15:04:28;2.43;;;1.60;;
5945;SDS011;2998;48.206;16.394;2023-02-19T15:06:59;2.50;;;1.50;;
5945;SDS011;2998;48.206;16.394;2023-02-19T15:09:29;2.00;;;1.03;;
5945;SDS011;2998;48.206;16.394;2023-02-19T15:11:59;5.33;;;0.80;;
5945;SDS011;2998;48.206;16.394;2023-02-19T15:14:30;1.00;;;0.90;;
5945;SDS011;2998;48.206;16.394;2023-02-19T15:17:00;0.80;;;0.80;;
5945;SDS011;2998;48.206;16.394;2023-02-19T15:19:31;0.70;;;0.70;;
5945;SDS011;2998;48.206;16.394;2023-02-19T15:22:01;0.80;;;0.80;;
5945;SDS011;2998;48.206;16.394;2023-02-19T15:24:29;1.07;;;0.97;;
5945;SDS011;2998;48.206;16.394;2023-02-19T15:26:58;1.00;;;1.00;;
5945;SDS011;2998;48.206;16.394;2023-02-19T15:29:26;0.80;;;0.80;;
5945;SDS011;2998;48.206;16.394;2023-02-19T15:31:57;1.10;;;1.10;;
5945;SDS011;2998;48.206;16.394;2023-02-19T15:34:28;1.43;;;1.33;;
5945;SDS011;2998;48.206;16.394;2023-02-19T15:36:58;1.00;;;1.00;;
5945;SDS011;2998;48.206;16.394;2023-02-19T15:39:33;0.90;;;0.90;;
5945;SDS011;2998;48.206;16.394;2023-02-19T15:42:02;0.70;;;0.70;;
5945;SDS011;2998;48.206;16.394;2023-02-19T15:44:36;0.80;;;0.80;;
5945;SDS011;2998;48.206;16.394;2023-02-19T15:47:13;1.30;;;1.20;;
5945;SDS011;2998;48.206;16.394;2023-02-19T15:49:46;0.77;;;0.77;;
5945;SDS011;2998;48.206;16.394;2023-02-19T15:52:23;1.50;;;0.87;;
5945;SDS011;2998;48.206;16.394;2023-02-19T15:54:57;1.57;;;1.10;;